Batumi International Airport
UGSB : rendu visible

Aérodrome :











RETROUVEZ-NOUS SUR...

 
LOGIN :

S'inscrire | Disclaimer

   EN    FR    IT 

 









Légende :    VFR   VFR Marginal   IFR   IFR Intensif   IFR Très Intensif
Visi : 
Plafond : 
>= 8 km
>= 3000ft
5 à 8 km
1000 à 3000 ft
1500m à 5 km
500 à 1000 ft
800 à 1500m
200 à 500 ft
< 800m
< 200 ft
Symboles :   Orages  Brouillard  Fortes neiges  Fortes précipitations  Vent > 20 kt







- Altitude de l'aérodrome : 105 ft
- Code IATA : BUS


UGSB - Batumi International

DERNIER METAR :
  • 031330Z 26013KT 220V290 9999 -TSRA BKN025CB 09/04 Q1024 R13/29//55 NOSIG

METARs EXPIRÉS :
  • 031300Z 24014KT 9999 -TSRA BKN026CB 08/05 Q1023 R13/29//55 NOSIG
  • 031230Z 26013KT 230V300 9999 -TSRA BKN023CB 09/06 Q1023 R13/29//55 NOSIG
  • 031200Z 25020G31KT 8000 -SHRA FEW013 BKN023CB 08/05 Q1022 R13/29//55 NOSIG
  • 031130Z 29025KT 9999 -SHRA SCT023CB BKN061 10/05 Q1022 R13/29//55 NOSIG
  • 031100Z 28020KT 9999 VCTS FEW023CB BKN049 09/05 Q1021 R13/29//55 NOSIG
  • 031030Z 28022KT 9999 BKN017CB 09/05 Q1021 R13/29//55 NOSIG

TAF TAF UGSB
Valide du 03 à 12h jusqu'au 04 à 12h UTC


031100Z 0312/0412 22014KT 9999 SCT020CB BKN040 TX10/0411Z TN05/0401Z
TEMPO 0312/0319 28020G30KT 3000 TSRA SCT015 BKN025CB
BECMG 0317/0319 13016KT
TEMPO 0319/0406 4000 SHRA SCT015 BKN025CB
BECMG 0408/0410 22007KT
FIR UGGG / Asie



MET'MAP, la Météo Aéronautique d'un coup d'oeil ! - Copyright ORBIFLY Décembre 2007 - Disclaimer

ORBIFLY MET'MAP TEAM :

Programmation & Développement : Alexandra Zaïnal
Conception & Développement : Baudouin d'Aumeries
Co-Programmation & Développement : Marc-Olivier Méhu
Soutien technique & logistique : Manuel Goepfert

Contact : metmap@orbifly.com




SOURCES & CREDITS :

   NOAA       Earth
Advisory